createdAt,value
2022-12-28T00:04:08.333Z,84.36
2022-12-28T00:14:12.438Z,87.25
2022-12-28T00:24:19.376Z,88.61
2022-12-28T00:34:23.464Z,91.91
2022-12-28T00:44:26.300Z,92.37
2022-12-28T00:54:30.310Z,92.63
2022-12-28T01:04:33.322Z,94.11
2022-12-28T01:14:37.977Z,94.72
2022-12-28T01:24:40.990Z,95.21
2022-12-28T01:34:45.162Z,95.59
2022-12-28T01:44:49.308Z,96.23
2022-12-28T01:54:57.303Z,96.26
2022-12-28T02:05:00.623Z,96.01
2022-12-28T02:15:05.614Z,95.68
2022-12-28T02:25:30.889Z,95.18
2022-12-28T02:35:43.250Z,94.08
2022-12-28T02:46:04.264Z,95.26
2022-12-28T02:56:23.125Z,96.29
2022-12-28T03:06:55.696Z,96.94
2022-12-28T03:17:19.761Z,97.45
2022-12-28T03:27:40.976Z,97.10
2022-12-28T03:37:51.239Z,97.29
2022-12-28T03:47:55.808Z,99.10
2022-12-28T03:58:00.276Z,99.21
2022-12-28T04:08:03.031Z,100.87
2022-12-28T04:18:07.224Z,101.54
2022-12-28T04:28:10.008Z,101.61
2022-12-28T04:38:14.229Z,102.34
2022-12-28T04:48:16.945Z,102.13
2022-12-28T04:58:21.009Z,102.67
2022-12-28T05:08:23.689Z,102.84
2022-12-28T05:18:27.923Z,103.50
2022-12-28T05:28:30.790Z,104.06
2022-12-28T05:38:35.334Z,103.42
2022-12-28T05:48:41.003Z,104.31
2022-12-28T05:58:45.499Z,104.49
2022-12-28T06:08:49.472Z,104.20
2022-12-28T06:18:53.634Z,104.86
2022-12-28T06:28:56.541Z,104.28
2022-12-28T06:39:02.534Z,104.35
2022-12-28T06:49:05.456Z,105.08
2022-12-28T06:59:10.103Z,104.73
2022-12-28T07:09:15.275Z,104.58
2022-12-28T07:19:19.349Z,104.85
2022-12-28T07:29:22.229Z,105.06
2022-12-28T07:39:26.335Z,104.89
2022-12-28T07:49:29.280Z,104.22
2022-12-28T07:59:33.313Z,104.37
2022-12-28T08:09:36.039Z,104.75
2022-12-28T08:19:40.113Z,104.78
2022-12-28T08:29:42.894Z,104.50
2022-12-28T08:39:46.928Z,104.20
2022-12-28T08:49:49.726Z,104.03
2022-12-28T08:59:53.780Z,103.37
2022-12-28T09:09:56.650Z,103.19
2022-12-28T09:20:00.741Z,104.16
2022-12-28T09:30:03.972Z,104.70
2022-12-28T09:40:10.913Z,104.53
2022-12-28T09:50:35.498Z,104.99
2022-12-28T10:00:48.955Z,104.92
2022-12-28T10:10:53.006Z,105.30
2022-12-28T10:20:57.901Z,105.34
2022-12-28T10:31:06.900Z,105.27
2022-12-28T10:41:13.092Z,105.30
2022-12-28T10:51:18.635Z,104.89
2022-12-28T11:01:26.716Z,104.29
2022-12-28T11:11:29.816Z,103.77
2022-12-28T11:21:36.007Z,103.44
2022-12-28T11:31:43.565Z,102.75
2022-12-28T11:42:10.352Z,102.86
2022-12-28T11:52:47.540Z,101.56
2022-12-28T12:02:53.330Z,101.31
2022-12-28T12:12:56.921Z,101.20
2022-12-28T12:23:06.988Z,102.33
2022-12-28T12:33:16.080Z,103.47
2022-12-28T12:43:30.505Z,104.15
2022-12-28T12:53:48.934Z,103.73
2022-12-28T13:03:55.731Z,104.15
2022-12-28T13:13:58.804Z,103.92
2022-12-28T13:24:02.843Z,104.49
2022-12-28T13:34:15.896Z,104.53
2022-12-28T13:44:40.296Z,104.40
2022-12-28T13:54:47.647Z,104.70
2022-12-28T14:04:54.516Z,104.96
2022-12-28T14:14:57.726Z,104.66
2022-12-28T14:25:07.822Z,104.34
2022-12-28T14:35:18.791Z,104.31
2022-12-28T14:46:06.717Z,103.48
2022-12-28T14:56:11.167Z,102.79
2022-12-28T15:06:15.389Z,103.28
2022-12-28T15:16:22.828Z,103.12
2022-12-28T15:26:27.869Z,101.80
2022-12-28T15:36:30.830Z,102.06
2022-12-28T15:46:35.474Z,102.70
2022-12-28T15:56:40.261Z,102.22
2022-12-28T16:06:45.328Z,102.70
2022-12-28T16:16:48.297Z,102.17
2022-12-28T16:26:52.589Z,100.96
2022-12-28T16:36:58.163Z,100.27
2022-12-28T16:47:02.241Z,99.42
2022-12-28T16:57:05.340Z,99.26
2022-12-28T17:07:09.401Z,98.83
2022-12-28T17:17:12.332Z,98.65
2022-12-28T17:27:19.203Z,99.02
2022-12-28T17:37:22.329Z,98.27
2022-12-28T17:47:26.501Z,98.61
2022-12-28T17:57:31.757Z,99.32
2022-12-28T18:07:38.043Z,99.66
2022-12-28T18:17:40.784Z,99.45
2022-12-28T18:27:44.843Z,99.85
2022-12-28T18:37:47.847Z,99.24
2022-12-28T18:47:54.649Z,100.66
2022-12-28T18:57:57.474Z,100.15
2022-12-28T19:08:01.533Z,101.08
2022-12-28T19:18:04.280Z,100.58
2022-12-28T19:28:08.836Z,100.70
2022-12-28T19:38:11.752Z,100.87
2022-12-28T19:48:16.142Z,101.29
2022-12-28T19:58:20.536Z,101.22
2022-12-28T20:08:25.041Z,100.79
2022-12-28T20:18:27.877Z,101.37
2022-12-28T20:28:32.743Z,102.21
2022-12-28T20:38:35.755Z,102.50
2022-12-28T20:48:39.791Z,101.80
2022-12-28T20:58:42.893Z,101.75
2022-12-28T21:08:47.113Z,103.22
2022-12-28T21:18:50.927Z,103.30
2022-12-28T21:28:55.111Z,103.39
2022-12-28T21:38:58.006Z,103.60
2022-12-28T21:49:03.465Z,103.27
2022-12-28T21:59:07.209Z,103.26
2022-12-28T22:09:40.715Z,102.98
2022-12-28T22:19:43.904Z,102.32
2022-12-28T22:29:47.975Z,101.80
2022-12-28T22:39:50.985Z,100.17
2022-12-28T22:49:55.291Z,100.16
2022-12-28T22:59:58.146Z,99.67
2022-12-28T23:10:02.436Z,100.47
2022-12-28T23:20:23.389Z,99.35
2022-12-28T23:30:28.518Z,98.06
2022-12-28T23:40:31.524Z,97.58
2022-12-28T23:50:36.910Z,97.82
